Hobart, Australia
Current Conditions -  °F | °C
As of 12:30 AM on Sunday 26 Oct 2014 (Local Time) from YMHB Reporting Station
Light Rain Light Rain  
Wind Chill: 50°   Ceiling: 2000
Heat Index: 50°   Visibility: 5mi
Dew Point: 48°   Wind: 3mph
Humidity: 94%   Direction: 70°ENE
Pressure: 30.06"   Gusts: NA
Location:  42.88°S, 147.33°E
Report Text: YMHB 251330Z 07003KT 8000 -RA FEW016 BKN020 BKN055 10/09 Q1018
Loading
Personal Weather Stations






























Interactive Weather Map
Tropical Storm Tracking
New forecast layout! Learn more

10-Day Weather Forecast

Advertisements
Track Severe Weather on mobile